createdAt,value
2023-04-24T00:01:08.778Z,10.40
2023-04-24T00:03:38.475Z,10.40
2023-04-24T00:06:08.012Z,10.40
2023-04-24T00:08:37.308Z,10.30
2023-04-24T00:11:06.088Z,10.30
2023-04-24T00:13:34.790Z,10.20
2023-04-24T00:16:05.017Z,10.20
2023-04-24T00:18:33.754Z,10.10
2023-04-24T00:21:02.522Z,10.10
2023-04-24T00:23:31.177Z,10.10
2023-04-24T00:25:59.830Z,10.00
2023-04-24T00:28:28.376Z,10.00
2023-04-24T00:30:57.239Z,10.00
2023-04-24T00:33:27.492Z,9.90
2023-04-24T00:35:56.410Z,9.80
2023-04-24T00:38:25.047Z,9.80
2023-04-24T00:40:55.201Z,9.70
2023-04-24T00:43:23.861Z,9.70
2023-04-24T00:45:52.556Z,9.70
2023-04-24T00:48:22.309Z,9.70
2023-04-24T00:50:52.375Z,9.60
2023-04-24T00:53:21.168Z,9.60
2023-04-24T00:55:49.877Z,9.50
2023-04-24T00:58:18.508Z,9.40
2023-04-24T01:00:47.502Z,9.40
2023-04-24T01:03:16.695Z,9.30
2023-04-24T01:05:45.448Z,9.30
2023-04-24T01:08:16.592Z,9.20
2023-04-24T01:10:47.269Z,9.20
2023-04-24T01:13:16.295Z,9.20
2023-04-24T01:15:44.895Z,9.20
2023-04-24T01:18:13.550Z,9.10
2023-04-24T01:20:43.928Z,9.20
2023-04-24T01:23:14.026Z,9.10
2023-04-24T01:25:42.806Z,9.20
2023-04-24T01:28:11.652Z,9.20
2023-04-24T01:30:40.596Z,9.20
2023-04-24T01:33:10.032Z,9.20
2023-04-24T01:35:38.746Z,9.30
2023-04-24T01:38:07.887Z,9.30
2023-04-24T01:40:37.999Z,9.30
2023-04-24T01:43:06.791Z,9.30
2023-04-24T01:45:35.597Z,9.30
2023-04-24T01:48:04.870Z,9.30
2023-04-24T01:50:33.983Z,9.30
2023-04-24T01:53:02.683Z,9.20
2023-04-24T01:55:31.378Z,9.20
2023-04-24T01:58:03.450Z,9.10
2023-04-24T02:00:32.134Z,9.20
2023-04-24T02:03:03.088Z,9.10
2023-04-24T02:05:31.893Z,9.10
2023-04-24T02:08:01.083Z,9.00
2023-04-24T02:10:29.739Z,9.00
2023-04-24T02:12:58.406Z,9.00
2023-04-24T02:15:28.549Z,9.00
2023-04-24T02:17:57.101Z,9.00
2023-04-24T02:20:26.085Z,9.00
2023-04-24T02:22:54.674Z,9.00
2023-04-24T02:25:23.870Z,8.90
2023-04-24T02:27:52.487Z,8.90
2023-04-24T02:30:21.204Z,8.90
2023-04-24T02:32:51.617Z,8.80
2023-04-24T02:35:20.439Z,8.80
2023-04-24T02:37:48.984Z,8.90
2023-04-24T02:40:17.686Z,8.90
2023-04-24T02:42:46.294Z,8.90
2023-04-24T02:45:14.955Z,8.90
2023-04-24T02:47:43.594Z,8.90
2023-04-24T02:50:14.016Z,8.80
2023-04-24T02:52:42.550Z,8.90
2023-04-24T02:55:11.359Z,8.90
2023-04-24T02:57:39.966Z,9.00
2023-04-24T03:00:10.375Z,9.00
2023-04-24T03:02:39.101Z,9.00
2023-04-24T03:05:10.152Z,8.90
2023-04-24T03:07:40.247Z,9.00
2023-04-24T03:10:10.155Z,9.00
2023-04-24T03:12:38.972Z,8.90
2023-04-24T03:15:08.652Z,8.80
2023-04-24T03:17:38.225Z,8.70
2023-04-24T03:20:09.308Z,8.70
2023-04-24T03:22:39.356Z,8.60
2023-04-24T03:25:10.420Z,8.60
2023-04-24T03:27:40.392Z,8.60
2023-04-24T03:30:10.297Z,8.50
2023-04-24T03:32:40.584Z,8.50
2023-04-24T03:35:10.089Z,8.40
2023-04-24T03:37:40.110Z,8.40
2023-04-24T03:40:10.257Z,8.40
2023-04-24T03:42:39.495Z,8.40
2023-04-24T03:45:09.711Z,8.40
2023-04-24T03:47:38.485Z,8.40
2023-04-24T03:50:07.996Z,8.40
2023-04-24T03:52:36.582Z,8.50
2023-04-24T03:55:07.642Z,8.60
2023-04-24T03:57:37.742Z,8.60
2023-04-24T04:00:07.492Z,8.80
2023-04-24T04:02:36.237Z,8.80
2023-04-24T04:05:05.178Z,9.20
2023-04-24T04:07:33.782Z,9.60
2023-04-24T04:10:02.376Z,9.80
2023-04-24T04:12:32.645Z,9.80
2023-04-24T04:15:01.862Z,9.80
2023-04-24T04:17:30.616Z,9.80
2023-04-24T04:19:59.234Z,9.80
2023-04-24T04:22:27.795Z,9.80
2023-04-24T04:24:56.409Z,10.00
2023-04-24T04:27:25.225Z,10.30
2023-04-24T04:29:55.301Z,10.50
2023-04-24T04:32:24.187Z,10.70
2023-04-24T04:34:54.569Z,10.90
2023-04-24T04:37:23.333Z,11.00
2023-04-24T04:39:52.314Z,11.10
2023-04-24T04:42:24.412Z,11.20
2023-04-24T04:44:56.150Z,11.20
2023-04-24T04:47:25.153Z,11.20
2023-04-24T04:49:54.242Z,11.10
2023-04-24T04:52:26.721Z,11.30
2023-04-24T04:54:55.416Z,11.40
2023-04-24T04:57:24.183Z,11.50
2023-04-24T04:59:52.957Z,11.50
2023-04-24T05:02:23.123Z,11.60
2023-04-24T05:04:51.996Z,11.60
2023-04-24T05:07:20.916Z,11.70
2023-04-24T05:09:50.018Z,11.70
2023-04-24T05:12:18.547Z,11.80
2023-04-24T05:14:47.036Z,11.90
2023-04-24T05:17:16.364Z,12.00
2023-04-24T05:19:46.774Z,12.10
2023-04-24T05:22:16.069Z,12.10
2023-04-24T05:24:45.826Z,12.20
2023-04-24T05:27:16.968Z,12.20
2023-04-24T05:29:46.318Z,12.30
2023-04-24T05:32:15.382Z,12.40
2023-04-24T05:34:46.829Z,12.50
2023-04-24T05:37:16.085Z,12.50
2023-04-24T05:40:57.603Z,12.60
2023-04-24T05:46:09.771Z,12.90
2023-04-24T05:49:03.698Z,13.10
2023-04-24T05:51:41.810Z,13.20
2023-04-24T05:54:13.660Z,13.40
2023-04-24T05:57:35.836Z,13.50
2023-04-24T06:00:20.362Z,13.70
2023-04-24T06:03:00.680Z,13.80
2023-04-24T06:05:30.856Z,14.00
2023-04-24T06:08:21.759Z,14.20
2023-04-24T06:10:56.893Z,14.40
2023-04-24T06:13:39.833Z,14.60
2023-04-24T06:16:09.524Z,14.40
2023-04-24T06:18:41.191Z,15.00
2023-04-24T06:21:20.866Z,15.20
2023-04-24T06:23:51.697Z,15.40
2023-04-24T06:26:23.144Z,15.60
2023-04-24T06:28:52.626Z,15.80
2023-04-24T06:31:21.859Z,16.00
2023-04-24T06:33:53.605Z,16.00
2023-04-24T06:36:27.918Z,16.00
2023-04-24T06:39:03.636Z,15.90
2023-04-24T06:41:34.037Z,15.90
2023-04-24T06:44:06.867Z,15.80
2023-04-24T06:46:37.492Z,15.90
2023-04-24T06:49:06.974Z,15.90
2023-04-24T06:51:35.724Z,15.90
2023-04-24T06:54:05.788Z,15.90
2023-04-24T06:56:35.565Z,15.90
2023-04-24T06:59:11.360Z,16.00
2023-04-24T07:01:40.182Z,16.00
2023-04-24T07:04:09.789Z,16.10
2023-04-24T07:06:39.030Z,16.10
2023-04-24T07:09:10.618Z,16.20
2023-04-24T07:11:41.689Z,16.20
2023-04-24T07:14:11.214Z,16.30
2023-04-24T07:16:40.347Z,16.50
2023-04-24T07:19:09.155Z,16.70
2023-04-24T07:21:51.456Z,17.20
2023-04-24T07:24:23.034Z,17.60
2023-04-24T07:26:54.539Z,17.90
2023-04-24T07:29:23.289Z,18.00
2023-04-24T07:31:52.476Z,18.10
2023-04-24T07:34:21.276Z,18.20
2023-04-24T07:36:49.916Z,18.30
2023-04-24T07:39:18.515Z,18.40
2023-04-24T07:42:13.830Z,18.60
2023-04-24T07:44:42.545Z,18.90
2023-04-24T07:47:11.898Z,19.20
2023-04-24T07:49:40.610Z,19.40
2023-04-24T07:52:14.931Z,19.60
2023-04-24T07:54:44.275Z,19.80
2023-04-24T07:57:15.037Z,20.00
2023-04-24T07:59:44.013Z,20.30
2023-04-24T08:02:13.162Z,20.60
2023-04-24T08:04:42.043Z,20.80
2023-04-24T08:07:11.031Z,21.00
2023-04-24T08:09:39.887Z,21.20
2023-04-24T08:12:08.793Z,21.40
2023-04-24T08:14:38.906Z,21.50
2023-04-24T08:17:07.807Z,21.70
2023-04-24T08:19:36.639Z,21.90
2023-04-24T08:22:05.749Z,22.10
2023-04-24T08:24:34.706Z,22.30
2023-04-24T08:27:03.453Z,22.30
2023-04-24T08:29:32.231Z,22.30
2023-04-24T08:32:02.677Z,22.50
2023-04-24T08:34:31.510Z,22.60
2023-04-24T08:37:00.417Z,22.80
2023-04-24T08:39:29.213Z,23.00
2023-04-24T08:41:58.549Z,23.20
2023-04-24T08:44:27.818Z,23.40
2023-04-24T08:46:57.544Z,23.50
2023-04-24T08:49:29.566Z,23.60
2023-04-24T08:52:01.112Z,23.70
2023-04-24T08:54:30.865Z,23.90
2023-04-24T08:57:04.884Z,24.00
2023-04-24T08:59:34.412Z,24.10
2023-04-24T09:02:07.870Z,24.00
2023-04-24T09:04:38.688Z,24.00
2023-04-24T09:07:10.939Z,24.10
2023-04-24T09:09:41.992Z,24.30
2023-04-24T09:12:11.649Z,24.50
2023-04-24T09:14:43.868Z,24.50
2023-04-24T09:17:13.348Z,24.40
2023-04-24T09:19:44.526Z,24.30
2023-04-24T09:22:14.665Z,24.20
2023-04-24T09:24:43.668Z,24.10
2023-04-24T09:27:16.138Z,24.00
2023-04-24T09:29:57.368Z,23.90
2023-04-24T09:32:27.486Z,23.80
2023-04-24T09:35:11.656Z,23.60
2023-04-24T09:37:42.768Z,23.40
2023-04-24T09:40:16.339Z,23.20
2023-04-24T09:42:49.053Z,23.20
2023-04-24T09:45:18.003Z,23.10
2023-04-24T09:47:46.886Z,23.10
2023-04-24T09:50:20.039Z,23.00
2023-04-24T09:53:00.589Z,22.90
2023-04-24T09:55:29.720Z,22.80
2023-04-24T09:58:01.341Z,22.70
2023-04-24T10:00:32.369Z,22.80
2023-04-24T10:03:02.564Z,22.70
2023-04-24T10:05:35.316Z,22.70
2023-04-24T10:08:05.808Z,22.70
2023-04-24T10:10:36.298Z,22.70
2023-04-24T10:13:06.254Z,22.70
2023-04-24T10:15:35.315Z,22.60
2023-04-24T10:18:07.821Z,22.60
2023-04-24T10:20:39.581Z,22.50
2023-04-24T10:23:08.577Z,22.40
2023-04-24T10:25:38.314Z,22.40
2023-04-24T10:28:09.161Z,22.40
2023-04-24T10:30:39.868Z,22.40
2023-04-24T10:33:11.088Z,22.40
2023-04-24T10:35:45.093Z,22.30
2023-04-24T10:38:16.260Z,22.30
2023-04-24T10:40:45.648Z,22.40
2023-04-24T10:43:19.928Z,22.50
2023-04-24T10:46:04.634Z,22.70
2023-04-24T10:48:33.957Z,22.80
2023-04-24T10:51:04.430Z,22.90
2023-04-24T10:53:33.501Z,23.00
2023-04-24T10:56:05.957Z,23.10
2023-04-24T10:58:44.513Z,23.30
2023-04-24T11:01:27.436Z,23.40
2023-04-24T11:04:01.048Z,23.50
2023-04-24T11:06:37.309Z,23.60
2023-04-24T11:09:09.262Z,23.70
2023-04-24T11:12:20.095Z,23.80
2023-04-24T11:15:05.657Z,24.00
2023-04-24T11:17:38.892Z,24.20
2023-04-24T11:20:25.543Z,24.30
2023-04-24T11:22:59.033Z,24.50
2023-04-24T11:25:27.918Z,24.70
2023-04-24T11:28:07.623Z,24.90
2023-04-24T11:30:36.643Z,25.20
2023-04-24T11:33:07.407Z,25.40
2023-04-24T11:35:41.566Z,25.50
2023-04-24T11:38:24.104Z,25.60
2023-04-24T11:40:54.692Z,25.70
2023-04-24T11:43:24.440Z,25.60
2023-04-24T11:45:54.412Z,25.70
2023-04-24T11:48:24.766Z,25.80
2023-04-24T11:50:53.664Z,25.90
2023-04-24T11:53:24.376Z,26.10
2023-04-24T11:55:52.988Z,26.30
2023-04-24T11:58:24.250Z,26.40
2023-04-24T12:01:00.699Z,26.50
2023-04-24T12:03:29.811Z,26.50
2023-04-24T12:06:09.128Z,26.50
2023-04-24T12:08:39.809Z,26.50
2023-04-24T12:11:10.200Z,26.50
2023-04-24T12:13:38.972Z,26.50
2023-04-24T12:16:16.928Z,26.50
2023-04-24T12:18:55.991Z,26.50
2023-04-24T12:21:41.376Z,26.30
2023-04-24T12:24:11.863Z,25.90
2023-04-24T12:26:49.337Z,26.00
2023-04-24T12:29:29.596Z,26.00
2023-04-24T12:31:58.763Z,26.00
2023-04-24T12:34:28.900Z,26.20
2023-04-24T12:36:57.804Z,26.30
2023-04-24T12:39:28.214Z,26.30
2023-04-24T12:42:01.219Z,26.30
2023-04-24T12:44:35.671Z,26.20
2023-04-24T12:47:04.906Z,26.30
2023-04-24T12:49:35.591Z,26.30
2023-04-24T12:52:28.743Z,26.40
2023-04-24T12:54:59.924Z,26.50
2023-04-24T12:57:30.459Z,26.50
2023-04-24T13:00:00.440Z,26.50
2023-04-24T13:02:33.560Z,26.60
2023-04-24T13:05:05.044Z,26.70
2023-04-24T13:07:34.142Z,26.60
2023-04-24T13:10:33.848Z,26.40
2023-04-24T13:16:54.903Z,25.80
2023-04-24T13:19:27.971Z,25.60
2023-04-24T13:21:58.726Z,25.50
2023-04-24T13:24:27.720Z,25.40
2023-04-24T13:26:59.280Z,25.20
2023-04-24T13:29:28.276Z,25.10
2023-04-24T13:31:57.923Z,24.90
2023-04-24T13:34:27.385Z,24.70
2023-04-24T13:36:57.316Z,24.60
2023-04-24T13:39:27.075Z,24.60
2023-04-24T13:41:55.855Z,24.50
2023-04-24T13:44:26.255Z,24.30
2023-04-24T13:46:58.059Z,24.00
2023-04-24T13:49:27.685Z,23.80
2023-04-24T13:51:57.874Z,23.60
2023-04-24T13:54:27.221Z,23.40
2023-04-24T13:56:58.894Z,23.20
2023-04-24T13:59:29.379Z,23.00
2023-04-24T14:01:58.192Z,22.70
2023-04-24T14:04:27.345Z,22.40
2023-04-24T14:06:56.134Z,22.20
2023-04-24T14:09:24.958Z,22.00
2023-04-24T14:11:54.573Z,21.70
2023-04-24T14:14:23.196Z,21.60
2023-04-24T14:16:53.307Z,21.60
2023-04-24T14:19:22.084Z,21.60
2023-04-24T14:21:50.928Z,21.70
2023-04-24T14:24:21.544Z,21.90
2023-04-24T14:26:50.389Z,22.10
2023-04-24T14:29:19.093Z,22.30
2023-04-24T14:31:48.384Z,22.30
2023-04-24T14:34:18.469Z,22.40
2023-04-24T14:36:50.844Z,22.60
2023-04-24T14:39:20.080Z,22.70
2023-04-24T14:42:14.639Z,22.90
2023-04-24T14:44:43.708Z,23.00
2023-04-24T14:47:12.988Z,23.20
2023-04-24T14:49:49.115Z,23.30
2023-04-24T14:52:23.450Z,23.40
2023-04-24T14:54:52.401Z,23.60
2023-04-24T14:57:21.392Z,23.70
2023-04-24T14:59:51.683Z,23.80
2023-04-24T15:02:22.297Z,24.00
2023-04-24T15:04:53.262Z,24.10
2023-04-24T15:07:22.325Z,24.30
2023-04-24T15:09:51.016Z,24.30
2023-04-24T15:12:19.958Z,24.30
2023-04-24T15:14:48.818Z,24.20
2023-04-24T15:17:17.572Z,24.10
2023-04-24T15:19:46.585Z,24.00
2023-04-24T15:22:17.160Z,23.60
2023-04-24T15:24:45.824Z,23.30
2023-04-24T15:27:14.579Z,23.00
2023-04-24T15:29:44.516Z,22.70
2023-04-24T15:32:13.205Z,22.40
2023-04-24T15:34:45.915Z,22.10
2023-04-24T15:37:16.907Z,21.80
2023-04-24T15:39:47.713Z,21.60
2023-04-24T15:42:16.403Z,21.30
2023-04-24T15:44:46.071Z,21.10
2023-04-24T15:47:15.389Z,21.00
2023-04-24T15:49:44.079Z,20.70
2023-04-24T15:52:13.747Z,20.60
2023-04-24T15:54:47.020Z,20.40
2023-04-24T15:57:15.730Z,20.20
2023-04-24T15:59:44.740Z,20.10
2023-04-24T16:02:19.296Z,20.00
2023-04-24T16:04:48.726Z,19.90
2023-04-24T16:07:18.558Z,19.70
2023-04-24T16:09:48.663Z,19.70
2023-04-24T16:12:17.622Z,19.50
2023-04-24T16:14:46.269Z,19.50
2023-04-24T16:17:14.813Z,19.40
2023-04-24T16:19:43.516Z,19.30
2023-04-24T16:22:12.111Z,19.20
2023-04-24T16:24:40.611Z,19.10
2023-04-24T16:27:11.076Z,19.00
2023-04-24T16:29:39.780Z,19.00
2023-04-24T16:32:08.949Z,19.00
2023-04-24T16:34:37.566Z,18.90
2023-04-24T16:37:06.660Z,18.80
2023-04-24T16:39:35.814Z,18.70
2023-04-24T16:42:04.389Z,18.70
2023-04-24T16:44:34.472Z,18.60
2023-04-24T16:47:04.053Z,18.60
2023-04-24T16:49:33.013Z,18.60
2023-04-24T16:52:01.853Z,18.60
2023-04-24T16:54:34.856Z,18.50
2023-04-24T16:57:03.848Z,18.50
2023-04-24T16:59:34.308Z,18.50
2023-04-24T17:02:02.980Z,18.60
2023-04-24T17:04:32.752Z,18.60
2023-04-24T17:07:02.121Z,18.60
2023-04-24T17:09:30.883Z,18.60
2023-04-24T17:11:59.473Z,18.60
2023-04-24T17:14:28.055Z,18.60
2023-04-24T17:16:58.232Z,18.60
2023-04-24T17:19:27.353Z,18.60
2023-04-24T17:21:56.737Z,18.60
2023-04-24T17:24:25.591Z,18.50
2023-04-24T17:26:58.899Z,18.40
2023-04-24T17:29:30.652Z,18.20
2023-04-24T17:32:00.826Z,17.80
2023-04-24T17:34:29.476Z,18.00
2023-04-24T17:36:58.306Z,17.80
2023-04-24T17:39:27.058Z,17.70
2023-04-24T17:41:55.727Z,17.60
2023-04-24T17:44:27.689Z,17.50
2023-04-24T17:46:59.184Z,17.40
2023-04-24T17:49:31.864Z,17.30
2023-04-24T17:52:14.699Z,17.30
2023-04-24T17:57:59.505Z,16.90
2023-04-24T18:00:50.597Z,16.70
2023-04-24T18:04:03.584Z,16.50
2023-04-24T18:07:09.371Z,16.30
2023-04-24T18:09:41.326Z,16.10
2023-04-24T18:12:15.429Z,16.00
2023-04-24T18:14:44.152Z,15.90
2023-04-24T18:17:14.224Z,15.70
2023-04-24T18:19:42.862Z,15.60
2023-04-24T18:22:12.997Z,15.60
2023-04-24T18:24:42.144Z,15.50
2023-04-24T18:27:14.301Z,15.40
2023-04-24T18:29:43.180Z,15.30
2023-04-24T18:32:12.072Z,15.30
2023-04-24T18:34:41.412Z,15.10
2023-04-24T18:37:10.781Z,15.00
2023-04-24T18:39:41.339Z,14.90
2023-04-24T18:42:10.003Z,14.80
2023-04-24T18:44:41.706Z,14.70
2023-04-24T18:47:17.046Z,14.60
2023-04-24T18:49:46.212Z,14.20
2023-04-24T18:52:14.874Z,14.50
2023-04-24T18:54:44.971Z,14.60
2023-04-24T18:57:13.805Z,14.40
2023-04-24T18:59:42.605Z,14.40
2023-04-24T19:02:11.755Z,14.30
2023-04-24T19:04:40.695Z,14.40
2023-04-24T19:07:15.533Z,14.40
2023-04-24T19:09:45.792Z,14.40
2023-04-24T19:12:14.710Z,14.40
2023-04-24T19:14:43.488Z,14.30
2023-04-24T19:17:12.349Z,14.30
2023-04-24T19:19:41.282Z,14.30
2023-04-24T19:22:13.487Z,14.30
2023-04-24T19:24:46.498Z,14.30
2023-04-24T19:27:21.971Z,14.30
2023-04-24T19:30:15.221Z,14.30
2023-04-24T19:32:52.032Z,14.30
2023-04-24T19:35:31.659Z,14.30
2023-04-24T19:38:00.320Z,14.20
2023-04-24T19:40:30.531Z,14.20
2023-04-24T19:42:59.417Z,14.10
2023-04-24T19:45:27.966Z,14.10
2023-04-24T19:47:56.737Z,14.00
2023-04-24T19:50:25.491Z,14.00
2023-04-24T19:52:54.586Z,13.90
2023-04-24T19:55:23.300Z,13.90
2023-04-24T19:57:53.267Z,13.80
2023-04-24T20:00:21.989Z,13.80
2023-04-24T20:02:51.670Z,13.70
2023-04-24T20:05:20.663Z,13.70
2023-04-24T20:07:51.117Z,13.60
2023-04-24T20:10:20.281Z,13.60
2023-04-24T20:12:48.881Z,13.60
2023-04-24T20:15:19.234Z,13.60
2023-04-24T20:17:47.888Z,13.50
2023-04-24T20:20:16.803Z,13.50
2023-04-24T20:22:45.535Z,13.50
2023-04-24T20:25:14.227Z,13.50
2023-04-24T20:27:44.889Z,13.50
2023-04-24T20:30:14.495Z,13.40
2023-04-24T20:32:45.206Z,13.40
2023-04-24T20:35:13.938Z,13.30
2023-04-24T20:37:42.592Z,13.30
2023-04-24T20:40:14.392Z,13.20
2023-04-24T20:42:43.234Z,13.10
2023-04-24T20:45:12.668Z,13.10
2023-04-24T20:47:41.320Z,13.00
2023-04-24T20:50:14.230Z,13.00
2023-04-24T20:52:42.851Z,12.90
2023-04-24T20:55:11.852Z,12.90
2023-04-24T20:57:40.784Z,12.90
2023-04-24T21:00:11.109Z,12.80
2023-04-24T21:02:39.923Z,12.80
2023-04-24T21:05:11.798Z,12.70
2023-04-24T21:07:40.440Z,12.70
2023-04-24T21:10:11.732Z,12.70
2023-04-24T21:12:40.812Z,12.60
2023-04-24T21:15:10.214Z,12.50
2023-04-24T21:17:39.642Z,12.40
2023-04-24T21:20:12.742Z,12.40
2023-04-24T21:22:41.378Z,12.40
2023-04-24T21:25:11.041Z,12.40
2023-04-24T21:27:39.786Z,12.40
2023-04-24T21:30:09.722Z,12.40
2023-04-24T21:32:39.460Z,12.30
2023-04-24T21:35:08.687Z,12.30
2023-04-24T21:37:40.120Z,12.30
2023-04-24T21:40:11.540Z,12.20
2023-04-24T21:42:41.093Z,12.20
2023-04-24T21:45:10.967Z,12.20
2023-04-24T21:47:39.608Z,12.20
2023-04-24T21:50:10.117Z,12.30
2023-04-24T21:52:40.059Z,12.30
2023-04-24T21:55:09.366Z,12.30
2023-04-24T21:57:37.948Z,12.30
2023-04-24T22:00:08.540Z,12.30
2023-04-24T22:02:37.200Z,12.30
2023-04-24T22:05:06.195Z,12.30
2023-04-24T22:07:36.929Z,12.30
2023-04-24T22:10:08.547Z,12.40
2023-04-24T22:12:37.619Z,12.30
2023-04-24T22:15:07.259Z,12.40
2023-04-24T22:17:36.004Z,12.30
2023-04-24T22:20:05.565Z,12.40
2023-04-24T22:22:34.438Z,12.40
2023-04-24T22:25:03.241Z,12.30
2023-04-24T22:27:35.611Z,12.30
2023-04-24T22:30:04.513Z,12.30
2023-04-24T22:32:33.457Z,12.40
2023-04-24T22:35:02.133Z,12.40
2023-04-24T22:37:30.725Z,12.40
2023-04-24T22:40:01.357Z,12.30
2023-04-24T22:42:30.890Z,12.30
2023-04-24T22:45:01.105Z,12.20
2023-04-24T22:47:30.908Z,12.20
2023-04-24T22:49:59.557Z,12.10
2023-04-24T22:52:29.078Z,12.10
2023-04-24T22:54:57.642Z,12.10
2023-04-24T22:57:26.337Z,12.10
2023-04-24T22:59:55.524Z,12.00
2023-04-24T23:02:26.012Z,12.00
2023-04-24T23:04:54.822Z,12.00
2023-04-24T23:07:23.688Z,11.90
2023-04-24T23:09:52.252Z,11.90
2023-04-24T23:12:20.874Z,11.80
2023-04-24T23:14:49.415Z,11.80
2023-04-24T23:17:18.330Z,11.70
2023-04-24T23:19:48.397Z,11.70
2023-04-24T23:22:17.190Z,11.60
2023-04-24T23:24:45.991Z,11.60
2023-04-24T23:27:14.707Z,11.50
2023-04-24T23:29:57.509Z,11.50
2023-04-24T23:32:26.400Z,11.40
2023-04-24T23:34:56.666Z,11.50
2023-04-24T23:37:25.722Z,11.40
2023-04-24T23:39:54.483Z,11.30
2023-04-24T23:42:23.068Z,11.30
2023-04-24T23:44:51.648Z,11.20
2023-04-24T23:47:20.355Z,11.20
2023-04-24T23:49:49.041Z,11.10
2023-04-24T23:52:19.105Z,11.20
2023-04-24T23:54:47.716Z,11.10
2023-04-24T23:57:16.318Z,11.10
2023-04-24T23:59:44.926Z,11.00
